Map

Track Data

SID SEASON NUMBER BASIN SUBBASIN NAME ISO_TIME NATURE LAT LON WMO_WIND WMO_PRES WMO_AGENCY TRACK_TYPE DIST2LAND LANDFALL IFLAG USA_AGENCY USA_ATCF_ID USA_LAT USA_LON USA_RECORD USA_STATUS USA_WIND USA_PRES USA_SSHS USA_R34_NE USA_R34_SE USA_R34_SW USA_R34_NW USA_R50_NE USA_R50_SE USA_R50_SW USA_R50_NW USA_R64_NE USA_R64_SE USA_R64_SW USA_R64_NW USA_POCI USA_ROCI USA_RMW USA_EYE TOKYO_LAT TOKYO_LON TOKYO_GRADE TOKYO_WIND TOKYO_PRES TOKYO_R50_DIR TOKYO_R50_LONG TOKYO_R50_SHORT TOKYO_R30_DIR TOKYO_R30_LONG TOKYO_R30_SHORT TOKYO_LAND CMA_LAT CMA_LON CMA_CAT CMA_WIND CMA_PRES HKO_LAT HKO_LON HKO_CAT HKO_WIND HKO_PRES NEWDELHI_LAT NEWDELHI_LON NEWDELHI_GRADE NEWDELHI_WIND NEWDELHI_PRES NEWDELHI_CI NEWDELHI_DP NEWDELHI_POCI REUNION_LAT REUNION_LON REUNION_TYPE REUNION_WIND REUNION_PRES REUNION_TNUM REUNION_CI REUNION_RMW REUNION_R34_NE REUNION_R34_SE REUNION_R34_SW REUNION_R34_NW REUNION_R50_NE REUNION_R50_SE REUNION_R50_SW REUNION_R50_NW REUNION_R64_NE REUNION_R64_SE REUNION_R64_SW REUNION_R64_NW BOM_LAT BOM_LON BOM_TYPE BOM_WIND BOM_PRES BOM_TNUM BOM_CI BOM_RMW BOM_R34_NE BOM_R34_SE BOM_R34_SW BOM_R34_NW BOM_R50_NE BOM_R50_SE BOM_R50_SW BOM_R50_NW BOM_R64_NE BOM_R64_SE BOM_R64_SW BOM_R64_NW BOM_ROCI BOM_POCI BOM_EYE BOM_POS_METHOD BOM_PRES_METHOD NADI_LAT NADI_LON NADI_CAT NADI_WIND NADI_PRES WELLINGTON_LAT WELLINGTON_LON WELLINGTON_WIND WELLINGTON_PRES DS824_LAT DS824_LON DS824_STAGE DS824_WIND DS824_PRES TD9636_LAT TD9636_LON TD9636_STAGE TD9636_WIND TD9636_PRES TD9635_LAT TD9635_LON TD9635_WIND TD9635_PRES TD9635_ROCI NEUMANN_LAT NEUMANN_LON NEUMANN_CLASS NEUMANN_WIND NEUMANN_PRES MLC_LAT MLC_LON MLC_CLASS MLC_WIND MLC_PRES USA_GUST BOM_GUST BOM_GUST_PER REUNION_GUST REUNION_GUST_PER USA_SEAHGT USA_SEARAD_NE USA_SEARAD_SE USA_SEARAD_SW USA_SEARAD_NW STORM_SPEED STORM_DIR
1972199N37322 1972 60 NA NA NOT_NAMED 1972-07-16 12:00:00 TS 37.0000 -38.5000 20 hurdat_atl main 1612 1577 O_____________ hurdat_atl AL051972 37.0000 -38.5000 TD 20 -1 6 309
1972199N37322 1972 60 NA NA NOT_NAMED 1972-07-16 15:00:00 TS 37.1977 -38.7997 main 1577 1543 P_____________ AL051972 37.1977 -38.7997 TD 20 -1 6 310
1972199N37322 1972 60 NA NA NOT_NAMED 1972-07-16 18:00:00 TS 37.4000 -39.1000 20 hurdat_atl main 1543 1509 O_____________ hurdat_atl AL051972 37.4000 -39.1000 TD 20 -1 6 311
1972199N37322 1972 60 NA NA NOT_NAMED 1972-07-16 21:00:00 TS 37.6074 -39.4001 main 1509 1474 P_____________ AL051972 37.6074 -39.4001 TD 22 -1 6 310
1972199N37322 1972 60 NA NA NOT_NAMED 1972-07-17 00:00:00 TS 37.8000 -39.7000 25 hurdat_atl main 1474 1448 O_____________ hurdat_atl AL051972 37.8000 -39.7000 TD 25 -1 6 306
1972199N37322 1972 60 NA NA NOT_NAMED 1972-07-17 03:00:00 TS 37.9499 -39.9929 main 1448 1414 P_____________ AL051972 37.9499 -39.9929 TD 25 -1 6 302
1972199N37322 1972 60 NA NA NOT_NAMED 1972-07-17 06:00:00 TS 38.1000 -40.3000 25 hurdat_atl main 1414 1380 O_____________ hurdat_atl AL051972 38.1000 -40.3000 TD 25 -1 6 305
1972199N37322 1972 60 NA NA NOT_NAMED 1972-07-17 09:00:00 TS 38.3226 -40.6571 main 1374 1340 P_____________ AL051972 38.3226 -40.6571 TD 25 -1 7 306
1972199N37322 1972 60 NA NA NOT_NAMED 1972-07-17 12:00:00 TS 38.5000 -41.0000 25 hurdat_atl main 1340 1322 O_____________ hurdat_atl AL051972 38.5000 -41.0000 TD 25 -1 5 294
1972199N37322 1972 60 NA NA NOT_NAMED 1972-07-17 15:00:00 TS 38.5298 -41.2654 main 1322 1310 P_____________ AL051972 38.5298 -41.2654 TD 25 -1 4 270
1972199N37322 1972 60 NA NA NOT_NAMED 1972-07-17 18:00:00 TS 38.5000 -41.5000 25 hurdat_atl main 1310 1298 O_____________ hurdat_atl AL051972 38.5000 -41.5000 TD 25 -1 4 266
1972199N37322 1972 60 NA NA NOT_NAMED 1972-07-17 21:00:00 TS 38.4999 -41.7500 main 1298 1281 P_____________ AL051972 38.4999 -41.7500 TD 25 -1 4 270
1972199N37322 1972 60 NA NA NOT_NAMED 1972-07-18 00:00:00 TS 38.5000 -42.0000 25 hurdat_atl main 1281 1269 O_____________ hurdat_atl AL051972 38.5000 -42.0000 TD 25 -1 4 270
1972199N37322 1972 60 NA NA NOT_NAMED 1972-07-18 03:00:00 TS 38.4999 -42.2500 main 1269 1252 P_____________ AL051972 38.4999 -42.2500 TD 25 -1 4 270
1972199N37322 1972 60 NA NA NOT_NAMED 1972-07-18 06:00:00 TS 38.5000 -42.5000 25 hurdat_atl main 1252 1235 O_____________ hurdat_atl AL051972 38.5000 -42.5000 TD 25 -1 4 273
1972199N37322 1972 60 NA NA NOT_NAMED 1972-07-18 09:00:00 TS 38.5226 -42.7799 main 1235 1224 P_____________ AL051972 38.5226 -42.7799 TD 22 -1 4 270
1972199N37322 1972 60 NA NA NOT_NAMED 1972-07-18 12:00:00 TS 38.5000 -43.0000 20 hurdat_atl main 1224 1219 O_____________ hurdat_atl AL051972 38.5000 -43.0000 TD 20 -1 3 236
1972199N37322 1972 60 NA NA NOT_NAMED 1972-07-18 15:00:00 TS 38.3649 -43.0800 main 1227 1227 P_____________ AL051972 38.3649 -43.0800 TD 20 -1 3 194
1972199N37322 1972 60 NA NA NOT_NAMED 1972-07-18 18:00:00 TS 38.2000 -43.1000 20 hurdat_atl main 1245 1245 O_____________ hurdat_atl AL051972 38.2000 -43.1000 TD 20 -1 3 192
1972199N37322 1972 60 NA NA NOT_NAMED 1972-07-18 21:00:00 TS 38.1000 -43.1500 main 1254 1248 P_____________ AL051972 38.1000 -43.1500 TD 20 -1 2 203
1972199N37322 1972 60 NA NA NOT_NAMED 1972-07-19 00:00:00 TS 38.0000 -43.2000 20 hurdat_atl main 1257 1257 O_____________ hurdat_atl AL051972 38.0000 -43.2000 TD 20 -1 3 195
1972199N37322 1972 60 NA NA NOT_NAMED 1972-07-19 03:00:00 TS 37.8500 -43.2425 main 1275 1270 P_____________ AL051972 37.8500 -43.2425 TD 20 -1 3 194
1972199N37322 1972 60 NA NA NOT_NAMED 1972-07-19 06:00:00 TS 37.7000 -43.3000 20 hurdat_atl main 1279 1273 O_____________ hurdat_atl AL051972 37.7000 -43.3000 TD 20 -1 4 218
1972199N37322 1972 60 NA NA NOT_NAMED 1972-07-19 09:00:00 TS 37.5542 -43.5346 main 1277 1277 P_____________ AL051972 37.5542 -43.5346 TD 20 -1 3 219
1972199N37322 1972 60 NA NA NOT_NAMED 1972-07-19 12:00:00 TS 37.5000 -43.5000 20 hurdat_atl main 1286 1286 O_____________ hurdat_atl AL051972 37.5000 -43.5000 TD 20 -1 6 85
1972199N37322 1972 60 NA NA NOT_NAMED 1972-07-19 15:00:00 TS 37.6064 -42.7855 main 1314 1314 P_____________ AL051972 37.6064 -42.7855 TD 22 -1 14 77
1972199N37322 1972 60 NA NA NOT_NAMED 1972-07-19 18:00:00 TS 37.8000 -41.8000 25 hurdat_atl main 1351 1351 O_____________ hurdat_atl AL051972 37.8000 -41.8000 TD 25 -1 15 75
1972199N37322 1972 60 NA NA NOT_NAMED 1972-07-19 21:00:00 TS 37.9918 -40.9923 main 1380 1380 P_____________ AL051972 37.9918 -40.9923 TD 25 -1 13 72
1972199N37322 1972 60 NA NA NOT_NAMED 1972-07-20 00:00:00 TS 38.2000 -40.2000 25 hurdat_atl main 1412 1412 O_____________ hurdat_atl AL051972 38.2000 -40.2000 TD 25 -1 13 72
1972199N37322 1972 60 NA NA NOT_NAMED 1972-07-20 03:00:00 TS 38.3995 -39.3996 main 1446 1446 P_____________ AL051972 38.3995 -39.3996 TD 25 -1 13 72
1972199N37322 1972 60 NA NA NOT_NAMED 1972-07-20 06:00:00 TS 38.6000 -38.6000 25 hurdat_atl main 1481 1481 O_____________ hurdat_atl AL051972 38.6000 -38.6000 TD 25 -1 13 73
1972199N37322 1972 60 NA NA NOT_NAMED 1972-07-20 09:00:00 TS 38.7921 -37.7919 main 1518 1518 P_____________ AL051972 38.7921 -37.7919 TD 25 -1 13 72
1972199N37322 1972 60 NA NA NOT_NAMED 1972-07-20 12:00:00 TS 39.0000 -37.0000 25 hurdat_atl main 1556 1556 O_____________ hurdat_atl AL051972 39.0000 -37.0000 TD 25 -1 13 70
1972199N37322 1972 60 NA NA NOT_NAMED 1972-07-20 15:00:00 TS 39.2408 -36.2412 main 1597 1590 P_____________ AL051972 39.2408 -36.2412 TD 22 -1 13 67
1972199N37322 1972 60 NA NA NOT_NAMED 1972-07-20 18:00:00 TS 39.5000 -35.5000 20 hurdat_atl main 1625 O_____________ hurdat_atl AL051972 39.5000 -35.5000 TD 20 -1 13 66

About IBTrACS Database

This database is a web-friendly format of International Best Track Archive for Climate Stewardship (IBTrACS), a global best track data archive curated by NOAA dating back to 1842.

Updated: 2021-12-06